createdAt,value
2022-07-31T09:12:48.148Z,51.22
2022-07-31T09:14:51.503Z,51.22
2022-07-31T09:16:54.742Z,52.50
2022-07-31T09:19:03.456Z,51.95
2022-07-31T09:21:26.878Z,51.23
2022-07-31T09:23:30.456Z,51.65
2022-07-31T09:25:33.941Z,52.33
2022-07-31T09:27:36.973Z,51.87
2022-07-31T09:29:41.851Z,51.24
2022-07-31T09:31:45.413Z,52.19
2022-07-31T09:33:48.968Z,53.39
2022-07-31T09:35:54.872Z,53.08
2022-07-31T09:37:57.698Z,53.00
2022-07-31T09:40:05.540Z,52.69
2022-07-31T09:42:16.494Z,51.77
2022-07-31T09:44:25.386Z,51.30
2022-07-31T09:46:43.748Z,51.17
2022-07-31T09:48:59.925Z,50.64
2022-07-31T09:51:06.158Z,49.97
2022-07-31T09:53:08.970Z,48.27
2022-07-31T09:55:16.967Z,48.21
2022-07-31T09:57:19.710Z,48.91
2022-07-31T09:59:24.012Z,49.28
2022-07-31T10:01:27.497Z,48.87
2022-07-31T10:03:30.922Z,48.75
2022-07-31T10:05:35.203Z,49.05
2022-07-31T10:07:39.527Z,49.02
2022-07-31T10:09:43.994Z,48.95
2022-07-31T10:11:49.186Z,48.84
2022-07-31T10:13:56.601Z,48.68
2022-07-31T10:16:01.561Z,48.78
2022-07-31T10:18:08.684Z,48.80
2022-07-31T10:20:17.498Z,49.07
2022-07-31T10:22:22.592Z,50.18
2022-07-31T10:24:30.070Z,49.56
2022-07-31T10:26:57.725Z,50.39
2022-07-31T10:28:57.840Z,51.33
2022-07-31T10:31:01.298Z,50.36
2022-07-31T10:33:34.129Z,50.70
2022-07-31T10:35:35.726Z,49.94
2022-07-31T10:38:03.874Z,49.22
2022-07-31T10:40:18.981Z,50.37
2022-07-31T10:42:48.010Z,49.93
2022-07-31T10:45:05.454Z,50.67
2022-07-31T10:47:14.219Z,50.45
2022-07-31T10:49:17.962Z,50.42
2022-07-31T10:51:22.555Z,50.29
2022-07-31T10:53:50.030Z,49.49
2022-07-31T10:56:00.498Z,49.58
2022-07-31T10:58:10.142Z,48.36
2022-07-31T11:00:14.088Z,47.82
2022-07-31T11:02:33.206Z,47.17
2022-07-31T11:04:37.246Z,48.26
2022-07-31T11:06:41.656Z,50.26
2022-07-31T11:08:48.606Z,50.40
2022-07-31T11:10:53.637Z,50.08
2022-07-31T11:13:11.067Z,50.44
2022-07-31T11:15:25.426Z,50.25
2022-07-31T11:18:22.427Z,50.00
2022-07-31T11:20:00.900Z,49.86
2022-07-31T11:22:31.291Z,48.68
2022-07-31T11:24:34.694Z,47.94
2022-07-31T11:26:42.056Z,48.16
2022-07-31T11:28:45.201Z,47.69
2022-07-31T11:30:54.270Z,47.80
2022-07-31T11:32:56.669Z,47.20
2022-07-31T11:34:59.424Z,46.60
2022-07-31T11:37:06.568Z,48.32
2022-07-31T11:39:12.716Z,46.99
2022-07-31T11:41:22.136Z,45.13
2022-07-31T11:43:26.374Z,46.27
2022-07-31T11:45:33.589Z,47.27
2022-07-31T11:48:11.601Z,46.68
2022-07-31T11:50:04.211Z,46.91
2022-07-31T11:52:09.929Z,47.62
2022-07-31T11:54:32.611Z,46.52
2022-07-31T11:56:35.977Z,46.21
2022-07-31T11:58:41.307Z,46.84
2022-07-31T12:00:51.631Z,46.98
2022-07-31T12:02:54.390Z,47.90
2022-07-31T12:04:56.868Z,48.29
2022-07-31T12:07:00.304Z,46.66
2022-07-31T12:09:03.081Z,45.66
2022-07-31T12:11:07.923Z,45.08
2022-07-31T12:13:21.847Z,41.99
2022-07-31T12:15:24.478Z,38.78
2022-07-31T12:17:27.222Z,37.73
2022-07-31T12:19:32.607Z,37.67
2022-07-31T12:21:40.771Z,38.94
2022-07-31T12:23:53.324Z,40.51
2022-07-31T12:25:55.731Z,41.06
2022-07-31T12:27:58.420Z,41.62
2022-07-31T12:30:00.829Z,42.72
2022-07-31T12:32:05.412Z,44.07
2022-07-31T12:34:08.135Z,45.98
2022-07-31T12:36:15.713Z,46.80
2022-07-31T12:38:44.747Z,47.69
2022-07-31T12:40:50.377Z,49.24
2022-07-31T12:42:53.095Z,47.85
2022-07-31T12:44:58.220Z,47.35
2022-07-31T12:47:01.082Z,46.62
2022-07-31T12:49:05.085Z,47.87
2022-07-31T12:51:07.477Z,47.78
2022-07-31T12:53:10.392Z,47.58
2022-07-31T12:55:12.877Z,47.48
2022-07-31T12:57:15.923Z,47.38
2022-07-31T12:59:18.583Z,47.23
2022-07-31T13:01:20.929Z,48.33
2022-07-31T13:03:23.390Z,48.66
2022-07-31T13:05:26.418Z,48.88
2022-07-31T13:07:28.754Z,48.39
2022-07-31T13:09:31.512Z,47.88
2022-07-31T13:11:46.742Z,47.52
2022-07-31T13:13:51.082Z,48.04
2022-07-31T13:15:54.121Z,47.65
2022-07-31T13:18:04.867Z,47.19
2022-07-31T13:20:07.689Z,47.96
2022-07-31T13:22:16.973Z,48.04
2022-07-31T13:24:20.848Z,48.66
2022-07-31T13:26:23.328Z,49.85
2022-07-31T13:28:26.387Z,49.80
2022-07-31T13:30:29.096Z,51.07
2022-07-31T13:32:31.985Z,50.91
2022-07-31T13:34:34.850Z,50.24
2022-07-31T13:36:39.053Z,49.92
2022-07-31T13:38:43.376Z,49.96
2022-07-31T13:41:04.195Z,49.29
2022-07-31T13:43:06.884Z,48.39
2022-07-31T13:45:09.959Z,48.97
2022-07-31T13:47:12.286Z,49.34
2022-07-31T13:49:15.735Z,49.39
2022-07-31T13:51:18.756Z,48.34
2022-07-31T13:53:26.444Z,48.35
2022-07-31T13:55:29.151Z,46.52
2022-07-31T13:57:31.640Z,46.63
2022-07-31T13:59:34.161Z,46.07
2022-07-31T14:02:03.703Z,45.24
2022-07-31T14:03:59.451Z,44.90
2022-07-31T14:06:04.822Z,43.96
2022-07-31T14:08:32.683Z,43.71
2022-07-31T14:10:31.173Z,43.14
2022-07-31T14:12:35.506Z,41.70
2022-07-31T14:14:37.902Z,41.73
2022-07-31T14:16:41.945Z,42.09
2022-07-31T14:18:44.307Z,41.50
2022-07-31T14:20:46.826Z,41.66
2022-07-31T14:22:49.548Z,41.41
2022-07-31T14:24:52.292Z,41.65
2022-07-31T14:26:54.722Z,41.37
2022-07-31T14:28:57.616Z,41.44
2022-07-31T14:31:00.217Z,41.97
2022-07-31T14:33:03.335Z,42.61
2022-07-31T14:35:08.602Z,43.34
2022-07-31T14:37:11.378Z,43.47
2022-07-31T14:39:13.951Z,44.04
2022-07-31T14:41:16.690Z,44.93
2022-07-31T14:43:19.056Z,44.90
2022-07-31T14:45:21.683Z,46.44
2022-07-31T14:47:25.138Z,47.06
2022-07-31T14:50:08.373Z,47.92
2022-07-31T14:51:49.733Z,48.25
2022-07-31T14:53:52.657Z,48.52
2022-07-31T14:55:55.030Z,48.45
2022-07-31T14:58:06.205Z,49.28
2022-07-31T15:00:13.263Z,50.58
2022-07-31T15:02:21.445Z,51.40
2022-07-31T15:04:25.037Z,51.04
2022-07-31T15:06:39.914Z,49.89
2022-07-31T15:08:50.308Z,49.97
2022-07-31T15:10:52.822Z,48.84
2022-07-31T15:12:55.499Z,48.24
2022-07-31T15:14:57.829Z,48.99
2022-07-31T15:17:00.233Z,49.58
2022-07-31T15:19:05.606Z,48.06
2022-07-31T15:21:16.613Z,47.74
2022-07-31T15:23:19.411Z,45.84
2022-07-31T15:25:22.146Z,44.38
2022-07-31T15:27:25.087Z,44.13
2022-07-31T15:30:04.984Z,43.43
2022-07-31T15:31:50.390Z,42.93
2022-07-31T15:33:54.458Z,42.02
2022-07-31T15:35:56.845Z,42.65
2022-07-31T15:37:59.692Z,42.56
2022-07-31T15:40:04.422Z,42.33
2022-07-31T15:42:06.821Z,41.89
2022-07-31T15:44:09.432Z,41.63
2022-07-31T15:46:11.893Z,42.08
2022-07-31T15:48:14.235Z,41.24
2022-07-31T15:50:21.492Z,41.47
2022-07-31T15:52:24.076Z,41.15
2022-07-31T15:54:26.442Z,40.97
2022-07-31T15:56:29.225Z,40.80
2022-07-31T15:58:31.596Z,40.68
2022-07-31T16:00:34.199Z,41.05
2022-07-31T16:02:37.643Z,40.73
2022-07-31T16:04:44.900Z,40.79
2022-07-31T16:06:54.481Z,41.53
2022-07-31T16:09:01.709Z,42.07
2022-07-31T16:11:04.125Z,42.42
2022-07-31T16:13:06.581Z,42.54
2022-07-31T16:15:09.901Z,43.57
2022-07-31T16:17:12.315Z,44.49
2022-07-31T16:19:15.264Z,44.89
2022-07-31T16:21:17.947Z,45.43
2022-07-31T16:23:20.675Z,45.36
2022-07-31T16:25:24.576Z,44.86
2022-07-31T16:27:27.391Z,44.44
2022-07-31T16:29:57.783Z,44.95
2022-07-31T16:31:52.775Z,44.61
2022-07-31T16:33:55.534Z,44.87
2022-07-31T16:35:58.091Z,44.10
2022-07-31T16:38:00.487Z,43.84
2022-07-31T16:40:04.430Z,43.72
2022-07-31T16:42:07.133Z,43.83
2022-07-31T16:44:09.489Z,43.72
2022-07-31T16:46:12.262Z,43.78
2022-07-31T16:48:14.619Z,43.53
2022-07-31T16:50:17.008Z,43.67
2022-07-31T16:52:19.961Z,43.57
2022-07-31T16:54:22.596Z,43.82
2022-07-31T16:56:24.920Z,44.21
2022-07-31T16:58:27.583Z,43.41
2022-07-31T17:00:31.179Z,44.12
2022-07-31T17:02:33.619Z,44.22
2022-07-31T17:04:36.284Z,43.84
2022-07-31T17:06:38.870Z,43.96
2022-07-31T17:08:43.884Z,43.79
2022-07-31T17:10:53.950Z,44.07
2022-07-31T17:12:56.913Z,44.66
2022-07-31T17:14:59.533Z,44.88
2022-07-31T17:17:02.379Z,44.46
2022-07-31T17:19:05.752Z,44.75
2022-07-31T17:21:08.311Z,45.25
2022-07-31T17:23:12.898Z,45.71
2022-07-31T17:25:16.136Z,46.42
2022-07-31T17:27:19.459Z,46.40
2022-07-31T17:29:22.199Z,47.07
2022-07-31T17:31:24.564Z,47.23
2022-07-31T17:33:58.761Z,46.89
2022-07-31T17:35:49.623Z,47.53
2022-07-31T17:37:52.123Z,47.93
2022-07-31T17:39:58.022Z,48.78
2022-07-31T17:42:00.970Z,48.32
2022-07-31T17:44:03.333Z,48.37
2022-07-31T17:46:09.477Z,47.83
2022-07-31T17:48:20.416Z,48.46
2022-07-31T17:50:22.914Z,48.27
2022-07-31T17:52:25.319Z,48.50
2022-07-31T17:54:30.334Z,48.56
2022-07-31T17:56:32.833Z,48.70
2022-07-31T17:58:36.358Z,49.02
2022-07-31T18:00:39.165Z,48.54
2022-07-31T18:02:41.948Z,49.41
2022-07-31T18:04:44.411Z,49.16
2022-07-31T18:06:48.602Z,49.75
2022-07-31T18:08:54.278Z,50.48
2022-07-31T18:10:56.623Z,49.86
2022-07-31T18:12:59.936Z,50.24
2022-07-31T18:15:04.549Z,50.81
2022-07-31T18:17:07.414Z,50.64
2022-07-31T18:19:09.858Z,49.98
2022-07-31T18:21:13.533Z,50.25
2022-07-31T18:23:16.082Z,50.57
2022-07-31T18:25:20.033Z,50.30
2022-07-31T18:27:22.743Z,49.94
2022-07-31T18:29:26.535Z,49.26
2022-07-31T18:31:34.409Z,48.66
2022-07-31T18:33:42.600Z,48.14
2022-07-31T18:35:45.422Z,47.74
2022-07-31T18:37:47.786Z,48.50
2022-07-31T18:39:50.553Z,48.28
2022-07-31T18:41:53.020Z,48.29
2022-07-31T18:43:56.014Z,48.59
2022-07-31T18:45:59.135Z,48.96
2022-07-31T18:48:01.630Z,49.04
2022-07-31T18:51:00.668Z,49.54
2022-07-31T18:52:28.111Z,49.25
2022-07-31T18:54:30.536Z,49.21
2022-07-31T18:56:32.978Z,49.19
2022-07-31T18:58:36.008Z,49.84
2022-07-31T19:00:38.734Z,49.94
2022-07-31T19:02:41.087Z,50.56
2022-07-31T19:04:43.846Z,50.35
2022-07-31T19:06:46.211Z,50.42
2022-07-31T19:08:49.673Z,50.69
2022-07-31T19:10:53.762Z,50.91
2022-07-31T19:12:56.426Z,50.65
2022-07-31T19:14:59.062Z,49.96
2022-07-31T19:17:02.058Z,49.46
2022-07-31T19:19:04.741Z,48.76
2022-07-31T19:21:22.938Z,48.13
2022-07-31T19:23:31.584Z,48.08
2022-07-31T19:25:53.957Z,47.38
2022-07-31T19:27:58.166Z,47.04
2022-07-31T19:30:02.706Z,46.36
2022-07-31T19:32:05.604Z,46.63
2022-07-31T19:34:08.122Z,46.53
2022-07-31T19:36:11.164Z,46.42
2022-07-31T19:38:13.653Z,46.38
2022-07-31T19:40:15.975Z,46.00
2022-07-31T19:42:18.641Z,45.84
2022-07-31T19:44:20.990Z,46.64
2022-07-31T19:46:23.446Z,46.70
2022-07-31T19:48:26.219Z,46.55
2022-07-31T19:50:30.688Z,46.43
2022-07-31T19:52:33.171Z,46.04
2022-07-31T19:54:38.103Z,46.54
2022-07-31T19:56:42.847Z,45.98
2022-07-31T19:58:45.428Z,46.44
2022-07-31T20:00:48.479Z,46.16
2022-07-31T20:02:51.267Z,45.94
2022-07-31T20:04:56.492Z,45.61
2022-07-31T20:07:02.805Z,45.38
2022-07-31T20:09:06.756Z,45.92
2022-07-31T20:11:09.397Z,45.95
2022-07-31T20:13:12.179Z,45.41
2022-07-31T20:15:15.207Z,45.83
2022-07-31T20:17:17.795Z,45.03
2022-07-31T20:19:20.409Z,45.03
2022-07-31T20:21:23.136Z,45.44
2022-07-31T20:23:28.608Z,44.35
2022-07-31T20:25:31.191Z,44.23
2022-07-31T20:27:33.910Z,44.27
2022-07-31T20:29:36.229Z,44.27
2022-07-31T20:31:38.630Z,45.06
2022-07-31T20:33:41.281Z,44.79
2022-07-31T20:35:47.568Z,44.46
2022-07-31T20:37:55.749Z,44.02
2022-07-31T20:39:58.645Z,44.22
2022-07-31T20:42:01.665Z,44.38
2022-07-31T20:44:06.016Z,44.48
2022-07-31T20:46:11.945Z,45.02
2022-07-31T20:48:17.836Z,44.47
2022-07-31T20:50:20.272Z,44.14
2022-07-31T20:52:23.086Z,43.96
2022-07-31T20:54:34.159Z,42.87
2022-07-31T20:56:37.687Z,42.74
2022-07-31T20:58:41.482Z,43.27
2022-07-31T21:00:44.063Z,43.00
2022-07-31T21:02:46.689Z,43.53
2022-07-31T21:04:52.553Z,42.14
2022-07-31T21:06:55.399Z,42.78
2022-07-31T21:08:57.758Z,42.76
2022-07-31T21:11:01.122Z,43.33
2022-07-31T21:13:04.174Z,44.24
2022-07-31T21:15:30.249Z,43.94
2022-07-31T21:17:30.940Z,43.69
2022-07-31T21:19:33.478Z,43.85
2022-07-31T21:21:35.945Z,44.30
2022-07-31T21:23:39.025Z,45.12
2022-07-31T21:25:47.700Z,44.05
2022-07-31T21:27:57.213Z,44.43
2022-07-31T21:30:00.573Z,43.24
2022-07-31T21:32:03.348Z,43.86
2022-07-31T21:34:06.373Z,44.31
2022-07-31T21:36:09.666Z,44.13
2022-07-31T21:38:14.724Z,44.94
2022-07-31T21:40:17.459Z,45.80
2022-07-31T21:42:20.384Z,46.53
2022-07-31T21:44:22.856Z,47.63
2022-07-31T21:46:29.363Z,47.47
2022-07-31T21:48:32.254Z,47.51
2022-07-31T21:50:35.045Z,47.22
2022-07-31T21:52:37.530Z,47.36
2022-07-31T21:54:40.215Z,47.68
2022-07-31T21:56:43.003Z,47.66
2022-07-31T21:58:45.978Z,48.31
2022-07-31T22:00:48.639Z,46.31
2022-07-31T22:02:51.475Z,46.17
2022-07-31T22:05:12.842Z,46.65
2022-07-31T22:07:33.405Z,47.99
2022-07-31T22:09:35.975Z,48.76
2022-07-31T22:11:38.643Z,49.89
2022-07-31T22:13:41.237Z,49.95
2022-07-31T22:15:59.483Z,49.54
2022-07-31T22:18:04.025Z,50.29
2022-07-31T22:20:07.860Z,50.91
2022-07-31T22:22:11.065Z,51.11
2022-07-31T22:24:14.270Z,51.86
2022-07-31T22:26:16.827Z,51.44
2022-07-31T22:28:21.272Z,51.62
2022-07-31T22:30:25.824Z,51.75
2022-07-31T22:32:30.797Z,52.54
2022-07-31T22:34:37.724Z,52.19
2022-07-31T22:36:40.518Z,52.63
2022-07-31T22:38:47.371Z,53.17
2022-07-31T22:40:50.564Z,52.77
2022-07-31T22:42:56.289Z,52.15
2022-07-31T22:45:00.184Z,51.79
2022-07-31T22:47:02.877Z,51.77
2022-07-31T22:49:06.039Z,51.30
2022-07-31T22:51:12.812Z,50.40
2022-07-31T22:53:18.108Z,50.79
2022-07-31T22:55:20.523Z,51.61
2022-07-31T22:57:23.010Z,52.26
2022-07-31T22:59:25.809Z,52.05
2022-07-31T23:01:28.194Z,51.55
2022-07-31T23:03:30.489Z,50.93
2022-07-31T23:06:28.184Z,50.18
2022-07-31T23:07:55.556Z,50.04
2022-07-31T23:09:58.278Z,49.19
2022-07-31T23:12:02.080Z,48.66
2022-07-31T23:14:04.531Z,48.43
